createdAt,value
2022-12-05T00:01:46.845Z,12.63
2022-12-05T00:04:13.055Z,12.20
2022-12-05T00:06:39.228Z,13.43
2022-12-05T00:09:05.380Z,12.98
2022-12-05T00:11:31.471Z,11.82
2022-12-05T00:13:57.589Z,14.45
2022-12-05T00:16:23.827Z,12.35
2022-12-05T00:18:49.992Z,14.20
2022-12-05T00:21:16.113Z,11.55
2022-12-05T00:23:42.216Z,14.10
2022-12-05T00:26:08.330Z,11.85
2022-12-05T00:28:34.437Z,13.57
2022-12-05T00:31:00.535Z,12.30
2022-12-05T00:33:26.667Z,13.85
2022-12-05T00:35:52.787Z,13.07
2022-12-05T00:38:18.924Z,12.35
2022-12-05T00:40:45.973Z,12.30
2022-12-05T00:43:12.093Z,12.40
2022-12-05T00:45:38.237Z,16.90
2022-12-05T00:48:04.372Z,11.30
2022-12-05T00:50:30.479Z,13.13
2022-12-05T00:52:57.418Z,12.38
2022-12-05T00:55:23.540Z,11.77
2022-12-05T00:57:49.713Z,11.30
2022-12-05T01:00:15.836Z,13.20
2022-12-05T01:02:42.001Z,12.95
2022-12-05T01:05:08.135Z,13.43
2022-12-05T01:07:34.289Z,13.73
2022-12-05T01:10:00.410Z,14.63
2022-12-05T01:12:26.538Z,12.73
2022-12-05T01:14:52.686Z,13.88
2022-12-05T01:17:18.825Z,13.23
2022-12-05T01:19:44.967Z,14.60
2022-12-05T01:22:11.100Z,12.80
2022-12-05T01:24:37.235Z,12.75
2022-12-05T01:27:03.351Z,17.38
2022-12-05T01:29:29.488Z,13.50
2022-12-05T01:31:55.615Z,14.20
2022-12-05T01:34:21.772Z,13.18
2022-12-05T01:36:47.887Z,13.02
2022-12-05T01:39:13.989Z,14.77
2022-12-05T01:41:40.128Z,16.70
2022-12-05T01:44:06.271Z,14.68
2022-12-05T01:46:32.457Z,14.32
2022-12-05T01:48:58.687Z,16.98
2022-12-05T01:51:24.942Z,17.95
2022-12-05T01:53:51.084Z,15.35
2022-12-05T01:56:17.220Z,16.27
2022-12-05T01:58:43.459Z,16.23
2022-12-05T02:01:09.678Z,18.77
2022-12-05T02:03:36.022Z,15.13
2022-12-05T02:06:02.192Z,17.15
2022-12-05T02:08:28.451Z,14.45
2022-12-05T02:10:54.639Z,15.07
2022-12-05T02:13:20.734Z,16.50
2022-12-05T02:15:48.304Z,14.98
2022-12-05T02:18:16.188Z,15.75
2022-12-05T02:20:42.432Z,15.27
2022-12-05T02:23:08.544Z,18.90
2022-12-05T02:25:34.915Z,16.15
2022-12-05T02:28:01.102Z,15.90
2022-12-05T02:30:27.241Z,14.90
2022-12-05T02:32:53.358Z,16.42
2022-12-05T02:35:19.489Z,16.27
2022-12-05T02:37:45.639Z,16.63
2022-12-05T02:40:11.854Z,15.35
2022-12-05T02:42:37.992Z,16.98
2022-12-05T02:45:04.112Z,18.08
2022-12-05T02:47:30.242Z,19.17
2022-12-05T02:49:56.782Z,20.05
2022-12-05T02:52:23.122Z,16.58
2022-12-05T02:54:49.299Z,15.82
2022-12-05T02:57:15.429Z,16.20
2022-12-05T02:59:41.638Z,16.45
2022-12-05T03:02:07.739Z,18.08
2022-12-05T03:04:33.999Z,15.32
2022-12-05T03:07:00.162Z,19.08
2022-12-05T03:09:26.313Z,16.13
2022-12-05T03:11:52.411Z,16.38
2022-12-05T03:14:18.547Z,13.75
2022-12-05T03:16:44.725Z,14.93
2022-12-05T03:19:10.940Z,14.02
2022-12-05T03:21:37.072Z,13.65
2022-12-05T03:24:03.201Z,18.80
2022-12-05T03:26:29.509Z,14.95
2022-12-05T03:28:55.667Z,10.43
2022-12-05T03:31:21.783Z,14.90
2022-12-05T03:33:48.135Z,15.52
2022-12-05T03:36:14.407Z,12.93
2022-12-05T03:38:40.514Z,11.75
2022-12-05T03:41:06.654Z,12.65
2022-12-05T03:43:32.772Z,14.98
2022-12-05T03:45:59.023Z,11.52
2022-12-05T03:48:25.210Z,16.55
2022-12-05T03:50:51.348Z,12.60
2022-12-05T03:53:20.036Z,14.25
2022-12-05T03:55:46.929Z,14.23
2022-12-05T03:58:13.097Z,15.23
2022-12-05T04:00:39.214Z,14.82
2022-12-05T04:03:05.411Z,16.52
2022-12-05T04:05:31.686Z,17.50
2022-12-05T04:07:57.958Z,15.20
2022-12-05T04:10:24.286Z,16.60
2022-12-05T04:12:50.408Z,17.83
2022-12-05T04:15:16.551Z,14.45
2022-12-05T04:17:42.667Z,16.60
2022-12-05T04:20:08.873Z,15.63
2022-12-05T04:22:34.978Z,15.65
2022-12-05T04:25:01.083Z,17.42
2022-12-05T04:27:27.213Z,12.48
2022-12-05T04:29:53.342Z,13.02
2022-12-05T04:32:19.507Z,12.75
2022-12-05T04:34:45.631Z,12.85
2022-12-05T04:37:11.755Z,12.20
2022-12-05T04:39:37.886Z,14.10
2022-12-05T04:42:04.085Z,14.02
2022-12-05T04:44:30.319Z,14.32
2022-12-05T04:46:56.537Z,16.50
2022-12-05T04:49:22.735Z,12.85
2022-12-05T04:51:48.873Z,12.80
2022-12-05T04:54:15.008Z,15.50
2022-12-05T04:56:41.143Z,17.23
2022-12-05T04:59:07.257Z,15.30
2022-12-05T05:01:33.516Z,15.15
2022-12-05T05:03:59.771Z,14.95
2022-12-05T05:06:25.917Z,14.85
2022-12-05T05:08:52.083Z,14.63
2022-12-05T05:11:18.208Z,15.15
2022-12-05T05:13:44.341Z,13.52
2022-12-05T05:16:10.599Z,15.57
2022-12-05T05:18:36.753Z,15.15
2022-12-05T05:21:02.919Z,14.93
2022-12-05T05:23:29.057Z,14.07
2022-12-05T05:25:55.199Z,15.77
2022-12-05T05:28:21.304Z,15.48
2022-12-05T05:30:47.470Z,17.73
2022-12-05T05:33:13.643Z,17.90
2022-12-05T05:35:39.811Z,17.33
2022-12-05T05:38:05.935Z,16.30
2022-12-05T05:40:32.064Z,17.27
2022-12-05T05:42:58.242Z,19.45
2022-12-05T05:45:24.357Z,16.98
2022-12-05T05:47:50.494Z,20.50
2022-12-05T05:50:21.420Z,17.30
2022-12-05T05:52:48.039Z,15.73
2022-12-05T05:55:14.504Z,15.57
2022-12-05T05:57:40.634Z,16.02
2022-12-05T06:00:06.759Z,15.27
2022-12-05T06:02:32.985Z,16.55
2022-12-05T06:04:59.334Z,17.35
2022-12-05T06:07:25.464Z,17.00
2022-12-05T06:09:51.573Z,18.98
2022-12-05T06:12:17.706Z,21.40
2022-12-05T06:14:43.845Z,14.48
2022-12-05T06:17:10.013Z,16.70
2022-12-05T06:19:36.158Z,17.42
2022-12-05T06:22:02.321Z,16.65
2022-12-05T06:24:28.435Z,17.20
2022-12-05T06:26:54.533Z,14.95
2022-12-05T06:29:25.320Z,16.20
2022-12-05T06:31:52.389Z,17.52
2022-12-05T06:34:18.556Z,15.05
2022-12-05T06:36:44.668Z,15.32
2022-12-05T06:39:10.792Z,15.80
2022-12-05T06:41:36.905Z,14.23
2022-12-05T06:44:03.018Z,14.88
2022-12-05T06:46:29.249Z,14.40
2022-12-05T06:48:55.475Z,13.60
2022-12-05T06:51:21.641Z,17.77
2022-12-05T06:53:47.781Z,13.65
2022-12-05T06:56:13.918Z,14.80
2022-12-05T06:58:40.112Z,12.90
2022-12-05T07:01:06.347Z,16.55
2022-12-05T07:03:32.538Z,15.68
2022-12-05T07:05:58.741Z,12.77
2022-12-05T07:08:24.939Z,13.32
2022-12-05T07:10:51.108Z,14.23
2022-12-05T07:13:17.258Z,15.65
2022-12-05T07:15:43.468Z,13.55
2022-12-05T07:18:09.603Z,14.55
2022-12-05T07:21:10.259Z,14.07
2022-12-05T07:23:21.876Z,11.20
2022-12-05T07:25:48.017Z,14.70
2022-12-05T07:28:14.159Z,14.27
2022-12-05T07:30:40.300Z,12.63
2022-12-05T07:33:06.419Z,14.18
2022-12-05T07:35:32.607Z,13.82
2022-12-05T07:37:58.772Z,17.25
2022-12-05T07:40:24.953Z,14.57
2022-12-05T07:42:51.107Z,11.40
2022-12-05T07:45:17.233Z,13.07
2022-12-05T07:47:45.578Z,14.88
2022-12-05T07:52:52.050Z,11.80
2022-12-05T07:55:18.282Z,14.13
2022-12-05T07:57:44.400Z,13.23
2022-12-05T08:00:10.534Z,11.93
2022-12-05T08:02:40.310Z,15.93
2022-12-05T08:05:06.906Z,11.52
2022-12-05T08:07:33.063Z,11.15
2022-12-05T08:09:59.592Z,13.50
2022-12-05T08:12:25.930Z,12.18
2022-12-05T08:14:52.055Z,12.55
2022-12-05T08:17:18.162Z,16.20
2022-12-05T08:19:44.308Z,13.25
2022-12-05T08:22:10.424Z,13.02
2022-12-05T08:24:36.578Z,14.10
2022-12-05T08:27:02.698Z,13.88
2022-12-05T08:29:28.832Z,14.55
2022-12-05T08:31:54.941Z,14.50
2022-12-05T08:34:21.151Z,12.57
2022-12-05T08:36:47.295Z,12.73
2022-12-05T08:39:13.445Z,12.43
2022-12-05T08:41:39.558Z,12.40
2022-12-05T08:44:05.702Z,11.93
2022-12-05T08:46:31.877Z,12.05
2022-12-05T08:48:58.030Z,12.05
2022-12-05T08:51:24.182Z,11.75
2022-12-05T08:53:50.277Z,11.65
2022-12-05T08:56:16.512Z,11.80
2022-12-05T08:58:42.652Z,11.02
2022-12-05T09:01:08.821Z,10.70
2022-12-05T09:03:36.225Z,10.52
2022-12-05T09:06:02.334Z,9.65
2022-12-05T09:08:28.454Z,10.98
2022-12-05T09:10:54.587Z,11.10
2022-12-05T09:13:20.742Z,13.65
2022-12-05T09:15:46.932Z,10.05
2022-12-05T09:18:13.092Z,11.45
2022-12-05T09:20:39.241Z,9.02
2022-12-05T09:23:05.348Z,11.57
2022-12-05T09:25:31.489Z,14.23
2022-12-05T09:27:57.617Z,13.00
2022-12-05T09:30:23.832Z,9.73
2022-12-05T09:32:50.006Z,11.13
2022-12-05T09:35:16.128Z,11.10
2022-12-05T09:37:42.238Z,12.10
2022-12-05T09:40:08.368Z,10.10
2022-12-05T09:42:34.493Z,10.02
2022-12-05T09:45:00.967Z,10.90
2022-12-05T09:47:27.343Z,13.23
2022-12-05T09:49:53.502Z,10.60
2022-12-05T09:52:19.656Z,10.13
2022-12-05T09:54:45.769Z,9.82
2022-12-05T09:57:11.942Z,11.35
2022-12-05T09:59:38.084Z,11.48
2022-12-05T10:02:04.331Z,9.23
2022-12-05T10:04:30.620Z,10.38
2022-12-05T10:06:56.868Z,9.70
2022-12-05T10:09:23.049Z,9.55
2022-12-05T10:11:49.420Z,9.85
2022-12-05T10:14:15.545Z,9.85
2022-12-05T10:16:41.755Z,9.82
2022-12-05T10:19:07.950Z,8.80
2022-12-05T10:21:34.121Z,9.63
2022-12-05T10:24:00.235Z,9.23
2022-12-05T10:26:26.419Z,10.77
2022-12-05T10:28:52.579Z,9.90
2022-12-05T10:31:18.779Z,10.90
2022-12-05T10:33:44.937Z,9.90
2022-12-05T10:36:11.105Z,10.27
2022-12-05T10:38:37.210Z,10.18
2022-12-05T10:41:03.326Z,10.02
2022-12-05T10:43:29.509Z,9.25
2022-12-05T10:45:55.638Z,9.15
2022-12-05T10:48:21.784Z,9.55
2022-12-05T10:50:47.890Z,11.10
2022-12-05T10:53:13.989Z,9.23
2022-12-05T10:55:40.119Z,8.85
2022-12-05T10:58:06.236Z,9.50
2022-12-05T11:00:32.375Z,11.63
2022-12-05T11:02:58.874Z,9.48
2022-12-05T11:05:25.089Z,11.13
2022-12-05T11:07:51.332Z,10.43
2022-12-05T11:10:20.104Z,9.90
2022-12-05T11:12:49.755Z,10.05
2022-12-05T11:15:15.894Z,11.60
2022-12-05T11:17:42.024Z,10.13
2022-12-05T11:20:08.137Z,10.52
2022-12-05T11:22:34.260Z,10.50
2022-12-05T11:25:00.614Z,11.27
2022-12-05T11:27:26.872Z,12.93
2022-12-05T11:29:52.982Z,10.05
2022-12-05T11:32:19.123Z,11.35
2022-12-05T11:34:45.237Z,12.32
2022-12-05T11:37:11.384Z,11.00
2022-12-05T11:39:37.508Z,12.45
2022-12-05T11:42:03.661Z,12.38
2022-12-05T11:44:29.798Z,9.45
2022-12-05T11:46:55.981Z,10.02
2022-12-05T11:49:22.126Z,10.82
2022-12-05T11:51:48.240Z,9.38
2022-12-05T11:54:14.348Z,12.57
2022-12-05T11:56:40.494Z,12.27
2022-12-05T11:59:06.608Z,9.82
2022-12-05T12:01:32.748Z,10.98
2022-12-05T12:03:58.934Z,10.73
2022-12-05T12:06:25.047Z,10.38
2022-12-05T12:08:51.186Z,9.73
2022-12-05T12:11:17.293Z,8.57
2022-12-05T12:13:43.424Z,9.00
2022-12-05T12:16:09.592Z,8.13
2022-12-05T12:18:35.743Z,10.45
2022-12-05T12:21:01.866Z,9.35
2022-12-05T12:23:27.992Z,8.90
2022-12-05T12:25:54.125Z,9.98
2022-12-05T12:28:20.243Z,8.68
2022-12-05T12:30:46.346Z,9.10
2022-12-05T12:33:12.475Z,6.72
2022-12-05T12:35:38.576Z,9.45
2022-12-05T12:38:04.712Z,5.95
2022-12-05T12:40:30.835Z,6.97
2022-12-05T12:42:56.966Z,6.35
2022-12-05T12:45:23.108Z,6.18
2022-12-05T12:47:49.242Z,6.88
2022-12-05T12:50:15.346Z,7.25
2022-12-05T12:52:41.477Z,6.68
2022-12-05T12:55:07.599Z,7.85
2022-12-05T12:57:33.788Z,6.25
2022-12-05T13:00:00.131Z,5.90
2022-12-05T13:02:26.480Z,5.80
2022-12-05T13:04:52.639Z,5.05
2022-12-05T13:07:18.740Z,7.78
2022-12-05T13:09:48.761Z,7.28
2022-12-05T13:12:17.712Z,8.77
2022-12-05T13:14:43.852Z,4.97
2022-12-05T13:17:10.022Z,4.00
2022-12-05T13:19:36.200Z,5.07
2022-12-05T13:22:02.321Z,5.38
2022-12-05T13:24:28.481Z,4.47
2022-12-05T13:26:54.594Z,5.45
2022-12-05T13:29:20.749Z,4.95
2022-12-05T13:31:46.908Z,4.78
2022-12-05T13:34:13.042Z,4.45
2022-12-05T13:36:39.137Z,4.70
2022-12-05T13:39:05.275Z,4.82
2022-12-05T13:41:31.383Z,3.90
2022-12-05T13:44:06.373Z,4.15
2022-12-05T13:46:33.276Z,3.92
2022-12-05T13:48:59.444Z,4.88
2022-12-05T13:51:25.561Z,5.82
2022-12-05T13:53:51.686Z,5.93
2022-12-05T13:56:17.787Z,2.92
2022-12-05T13:58:43.938Z,4.05
2022-12-05T14:01:10.102Z,3.72
2022-12-05T14:03:36.285Z,3.03
2022-12-05T14:06:02.419Z,3.70
2022-12-05T14:08:28.675Z,3.60
2022-12-05T14:10:54.792Z,4.00
2022-12-05T14:13:20.934Z,3.60
2022-12-05T14:15:47.152Z,5.28
2022-12-05T14:18:13.286Z,3.47
2022-12-05T14:20:39.459Z,3.22
2022-12-05T14:23:05.601Z,3.20
2022-12-05T14:25:31.757Z,3.45
2022-12-05T14:27:57.885Z,3.55
2022-12-05T14:30:24.057Z,5.53
2022-12-05T14:32:50.235Z,3.17
2022-12-05T14:35:16.394Z,4.97
2022-12-05T14:37:48.410Z,3.42
2022-12-05T14:40:16.029Z,3.92
2022-12-05T14:42:42.196Z,4.65
2022-12-05T14:45:08.334Z,5.53
2022-12-05T14:47:34.456Z,3.65
2022-12-05T14:50:00.944Z,2.97
2022-12-05T14:52:27.368Z,3.10
2022-12-05T14:54:53.544Z,3.72
2022-12-05T14:57:19.665Z,3.30
2022-12-05T14:59:45.811Z,3.50
2022-12-05T15:02:12.048Z,6.07
2022-12-05T15:04:38.195Z,3.58
2022-12-05T15:07:04.344Z,3.75
2022-12-05T15:09:38.413Z,3.70
2022-12-05T15:12:09.370Z,3.33
2022-12-05T15:14:35.948Z,3.72
2022-12-05T15:17:02.112Z,4.05
2022-12-05T15:19:28.229Z,4.40
2022-12-05T15:21:54.358Z,3.90
2022-12-05T15:24:20.486Z,3.65
2022-12-05T15:26:48.038Z,3.92
2022-12-05T15:29:14.492Z,4.03
2022-12-05T15:31:40.678Z,3.13
2022-12-05T15:34:06.788Z,4.03
2022-12-05T15:36:32.920Z,2.65
2022-12-05T15:38:59.066Z,4.28
2022-12-05T15:41:25.246Z,6.43
2022-12-05T15:43:51.350Z,3.42
2022-12-05T15:46:17.514Z,3.35
2022-12-05T15:48:43.667Z,3.63
2022-12-05T15:51:09.967Z,3.95
2022-12-05T15:53:36.105Z,4.93
2022-12-05T15:56:02.254Z,3.05
2022-12-05T15:58:28.401Z,4.43
2022-12-05T16:00:54.531Z,4.80
2022-12-05T16:03:20.719Z,4.00
2022-12-05T16:05:46.872Z,4.50
2022-12-05T16:08:13.066Z,3.38
2022-12-05T16:10:39.224Z,3.97
2022-12-05T16:13:05.324Z,4.75
2022-12-05T16:15:31.467Z,4.57
2022-12-05T16:17:57.639Z,3.90
2022-12-05T16:20:23.852Z,3.25
2022-12-05T16:22:49.979Z,3.47
2022-12-05T16:25:16.137Z,3.13
2022-12-05T16:27:42.379Z,4.65
2022-12-05T16:30:08.507Z,4.88
2022-12-05T16:32:34.660Z,3.45
2022-12-05T16:35:00.758Z,4.53
2022-12-05T16:37:26.888Z,5.10
2022-12-05T16:39:52.988Z,5.10
2022-12-05T16:42:19.132Z,4.07
2022-12-05T16:44:45.281Z,3.72
2022-12-05T16:47:11.426Z,5.65
2022-12-05T16:49:44.330Z,2.80
2022-12-05T16:52:12.059Z,3.30
2022-12-05T16:54:38.269Z,3.22
2022-12-05T16:57:04.393Z,2.60
2022-12-05T16:59:30.555Z,4.10
2022-12-05T17:01:56.723Z,9.82
2022-12-05T17:04:22.924Z,3.88
2022-12-05T17:06:49.155Z,3.47
2022-12-05T17:09:15.312Z,2.67
2022-12-05T17:11:41.509Z,3.97
2022-12-05T17:14:07.612Z,4.53
2022-12-05T17:16:33.833Z,4.70
2022-12-05T17:19:00.035Z,4.22
2022-12-05T17:21:26.176Z,4.72
2022-12-05T17:23:52.335Z,2.53
2022-12-05T17:26:18.459Z,1.75
2022-12-05T17:28:44.587Z,3.28
2022-12-05T17:31:10.752Z,2.88
2022-12-05T17:33:36.871Z,2.65
2022-12-05T17:36:03.018Z,3.10
2022-12-05T17:38:29.128Z,2.20
2022-12-05T17:40:55.307Z,3.13
2022-12-05T17:43:24.963Z,3.30
2022-12-05T17:45:51.333Z,5.25
2022-12-05T17:48:17.459Z,5.13
2022-12-05T17:50:43.627Z,3.80
2022-12-05T17:53:09.738Z,5.80
2022-12-05T17:55:35.888Z,5.03
2022-12-05T17:58:02.042Z,2.15
2022-12-05T18:00:28.195Z,3.17
2022-12-05T18:02:54.339Z,3.30
2022-12-05T18:05:20.510Z,2.72
2022-12-05T18:07:46.667Z,2.13
2022-12-05T18:10:13.090Z,3.92
2022-12-05T18:12:39.330Z,2.78
2022-12-05T18:15:05.481Z,3.08
2022-12-05T18:17:31.637Z,3.28
2022-12-05T18:19:57.807Z,2.95
2022-12-05T18:22:23.915Z,4.22
2022-12-05T18:24:50.084Z,6.13
2022-12-05T18:27:16.205Z,3.55
2022-12-05T18:29:42.368Z,6.20
2022-12-05T18:32:08.566Z,4.95
2022-12-05T18:34:34.849Z,4.18
2022-12-05T18:37:00.983Z,3.17
2022-12-05T18:39:27.113Z,4.03
2022-12-05T18:41:53.218Z,2.97
2022-12-05T18:44:19.454Z,3.50
2022-12-05T18:46:45.643Z,3.83
2022-12-05T18:49:11.771Z,4.22
2022-12-05T18:51:37.899Z,5.35
2022-12-05T18:54:04.077Z,2.88
2022-12-05T18:56:30.760Z,3.03
2022-12-05T18:58:57.180Z,3.60
2022-12-05T19:01:23.445Z,4.45
2022-12-05T19:03:49.668Z,3.60
2022-12-05T19:06:15.818Z,3.75
2022-12-05T19:08:42.008Z,2.28
2022-12-05T19:11:08.149Z,2.47
2022-12-05T19:13:34.317Z,2.95
2022-12-05T19:16:00.507Z,3.00
2022-12-05T19:18:26.702Z,3.67
2022-12-05T19:20:52.903Z,3.72
2022-12-05T19:23:19.014Z,3.88
2022-12-05T19:25:45.142Z,1.90
2022-12-05T19:28:11.259Z,2.95
2022-12-05T19:30:37.437Z,2.17
2022-12-05T19:33:03.559Z,2.38
2022-12-05T19:35:29.685Z,3.30
2022-12-05T19:37:55.798Z,3.40
2022-12-05T19:40:21.998Z,2.85
2022-12-05T19:42:48.158Z,2.80
2022-12-05T19:45:17.926Z,2.10
2022-12-05T19:47:45.047Z,2.97
2022-12-05T19:50:12.287Z,1.63
2022-12-05T19:52:40.255Z,3.88
2022-12-05T19:55:06.417Z,4.40
2022-12-05T19:57:32.545Z,2.58
2022-12-05T19:59:59.008Z,2.22
2022-12-05T20:02:25.460Z,2.90
2022-12-05T20:04:51.662Z,2.97
2022-12-05T20:07:17.860Z,2.25
2022-12-05T20:09:43.965Z,4.78
2022-12-05T20:12:10.085Z,3.30
2022-12-05T20:14:36.187Z,4.25
2022-12-05T20:17:02.348Z,4.63
2022-12-05T20:19:28.711Z,2.58
2022-12-05T20:21:54.835Z,2.83
2022-12-05T20:24:21.140Z,3.40
2022-12-05T20:26:47.267Z,8.38
2022-12-05T20:29:13.385Z,4.35
2022-12-05T20:31:39.507Z,5.20
2022-12-05T20:34:05.615Z,3.53
2022-12-05T20:36:31.722Z,3.20
2022-12-05T20:38:57.966Z,3.40
2022-12-05T20:41:24.079Z,6.30
2022-12-05T20:43:50.210Z,4.78
2022-12-05T20:46:16.398Z,3.83
2022-12-05T20:48:42.565Z,4.90
2022-12-05T20:51:08.701Z,7.47
2022-12-05T20:53:34.808Z,5.10
2022-12-05T20:56:00.923Z,3.13
2022-12-05T20:58:27.122Z,4.32
2022-12-05T21:00:53.306Z,3.25
2022-12-05T21:03:19.476Z,9.98
2022-12-05T21:05:45.603Z,3.90
2022-12-05T21:08:11.759Z,3.10
2022-12-05T21:10:38.046Z,3.03
2022-12-05T21:13:05.738Z,3.22
2022-12-05T21:15:31.854Z,3.45
2022-12-05T21:17:58.000Z,3.83
2022-12-05T21:20:24.139Z,2.88
2022-12-05T21:22:50.276Z,3.72
2022-12-05T21:25:16.401Z,3.63
2022-12-05T21:27:42.532Z,2.58
2022-12-05T21:30:08.663Z,4.72
2022-12-05T21:32:34.789Z,3.63
2022-12-05T21:35:00.904Z,3.03
2022-12-05T21:37:27.064Z,4.25
2022-12-05T21:39:53.236Z,3.45
2022-12-05T21:42:19.354Z,2.88
2022-12-05T21:44:45.507Z,3.63
2022-12-05T21:47:11.608Z,4.07
2022-12-05T21:49:37.894Z,4.03
2022-12-05T21:52:04.021Z,4.75
2022-12-05T21:54:30.142Z,3.97
2022-12-05T21:56:56.274Z,3.95
2022-12-05T21:59:22.391Z,3.85
2022-12-05T22:01:48.518Z,4.65
2022-12-05T22:04:14.656Z,4.40
2022-12-05T22:06:40.771Z,4.68
2022-12-05T22:09:06.877Z,5.15
2022-12-05T22:11:32.989Z,5.57
2022-12-05T22:13:59.114Z,4.60
2022-12-05T22:16:30.851Z,5.55
2022-12-05T22:18:59.146Z,4.00
2022-12-05T22:21:25.256Z,4.30
2022-12-05T22:23:51.450Z,5.80
2022-12-05T22:26:17.540Z,5.70
2022-12-05T22:28:43.666Z,6.43
2022-12-05T22:31:09.793Z,7.57
2022-12-05T22:33:35.947Z,5.65
2022-12-05T22:36:02.054Z,4.65
2022-12-05T22:38:28.340Z,5.55
2022-12-05T22:40:54.470Z,5.30
2022-12-05T22:43:20.585Z,4.93
2022-12-05T22:45:46.713Z,6.00
2022-12-05T22:48:12.815Z,5.15
2022-12-05T22:50:38.966Z,10.63
2022-12-05T22:53:05.086Z,5.15
2022-12-05T22:55:31.207Z,7.30
2022-12-05T22:57:57.313Z,5.72
2022-12-05T23:00:23.428Z,6.82
2022-12-05T23:02:49.552Z,5.28
2022-12-05T23:05:15.700Z,5.18
2022-12-05T23:07:41.872Z,5.55
2022-12-05T23:10:08.039Z,5.45
2022-12-05T23:12:34.156Z,7.13
2022-12-05T23:15:00.282Z,5.13
2022-12-05T23:17:26.381Z,5.40
2022-12-05T23:19:52.492Z,4.40
2022-12-05T23:22:18.607Z,5.03
2022-12-05T23:24:44.704Z,5.10
2022-12-05T23:27:10.820Z,4.40
2022-12-05T23:29:36.919Z,4.20
2022-12-05T23:32:03.029Z,3.78
2022-12-05T23:34:29.152Z,4.68
2022-12-05T23:36:55.258Z,4.40
2022-12-05T23:39:21.380Z,4.22
2022-12-05T23:41:47.484Z,4.75
2022-12-05T23:44:13.603Z,3.90
2022-12-05T23:46:39.745Z,4.47
2022-12-05T23:49:05.895Z,3.92
2022-12-05T23:51:32.009Z,4.53
2022-12-05T23:53:58.118Z,4.47
2022-12-05T23:56:24.223Z,5.20
2022-12-05T23:58:50.314Z,4.63
